Time;durP1;ratioP1;P1;durP2;ratioP2;P2;SDS_P1;SDS_P2;PMS_P1;PMS_P2;Temp;Humidity;BMP_temperature;BMP_pressure;BME280_temperature;BME280_humidity;BME280_pressure;Samples;Min_cycle;Max_cycle;Signal;HPM_P1;HPM_P2
2023/03/05 00:01:10;;;;;;;0.00;0.00;;;6.30;89.90;;;;;;5067489;28;20025;-78
2023/03/05 00:03:36;;;;;;;0.00;0.00;;;6.30;89.90;;;;;;5067177;28;20218;-78
2023/03/05 00:06:02;;;;;;;0.00;0.00;;;6.30;90.00;;;;;;5067138;28;20526;-78
2023/03/05 00:08:28;;;;;;;;;;;6.20;89.90;;;;;;5067841;28;20038;-78
2023/03/05 00:10:58;;;;;;;0.00;0.00;;;6.30;90.00;;;;;;5067370;28;20364;-78
2023/03/05 00:13:24;;;;;;;0.00;0.00;;;6.30;89.90;;;;;;5065988;28;20028;-78
2023/03/05 00:15:50;;;;;;;0.00;0.00;;;6.20;89.80;;;;;;5067047;28;20044;-78
2023/03/05 00:18:17;;;;;;;0.00;0.00;;;6.20;89.80;;;;;;5067278;28;20029;-78
2023/03/05 00:20:42;;;;;;;;;;;6.20;89.80;;;;;;5066558;28;20028;-78
2023/03/05 00:23:08;;;;;;;0.00;0.00;;;6.20;89.90;;;;;;5067058;28;19913;-78
2023/03/05 00:25:35;;;;;;;0.00;0.00;;;6.20;89.80;;;;;;5065768;28;20553;-78
2023/03/05 00:28:02;;;;;;;0.00;0.00;;;6.20;89.80;;;;;;5065856;28;20044;-77
2023/03/05 00:30:27;;;;;;;0.00;0.00;;;6.20;89.80;;;;;;5067203;28;20032;-77
2023/03/05 00:32:53;;;;;;;0.00;0.00;;;6.20;89.80;;;;;;5067307;28;20094;-78
2023/03/05 00:35:19;;;;;;;0.00;0.00;;;6.20;89.80;;;;;;5070408;28;20492;-78
2023/03/05 00:37:44;;;;;;;0.00;0.00;;;6.20;89.80;;;;;;5053261;28;20483;-78
2023/03/05 00:40:11;;;;;;;0.00;0.00;;;6.20;89.80;;;;;;5070030;28;20028;-78
2023/03/05 00:42:37;;;;;;;0.00;0.00;;;6.20;89.80;;;;;;5071096;28;20107;-77
2023/03/05 00:45:07;;;;;;;0.00;0.00;;;6.20;89.80;;;;;;5071101;28;20357;-78
2023/03/05 00:47:34;;;;;;;0.00;0.00;;;6.10;89.80;;;;;;5069778;28;20439;-78
2023/03/05 00:49:59;;;;;;;;;;;6.20;89.90;;;;;;5071323;28;20220;-78
2023/03/05 00:52:25;;;;;;;0.00;0.00;;;6.10;89.80;;;;;;5069677;28;19925;-78
2023/03/05 00:54:51;;;;;;;0.00;0.00;;;6.10;89.80;;;;;;5070919;28;20033;-78
2023/03/05 00:57:16;;;;;;;0.00;0.00;;;6.10;89.80;;;;;;5069483;28;20032;-78
2023/03/05 00:59:42;;;;;;;0.00;0.00;;;6.10;89.80;;;;;;5070741;28;20071;-78
2023/03/05 01:02:08;;;;;;;0.00;0.00;;;6.10;89.80;;;;;;5069112;28;20108;-78
2023/03/05 01:04:34;;;;;;;0.00;0.00;;;6.10;89.80;;;;;;5070376;28;20024;-78
2023/03/05 01:07:00;;;;;;;0.10;0.10;;;6.10;89.80;;;;;;5070503;28;20085;-78
2023/03/05 01:09:26;;;;;;;0.00;0.00;;;6.10;89.80;;;;;;5070562;28;20058;-78
2023/03/05 01:11:52;;;;;;;0.00;0.00;;;6.10;89.90;;;;;;5068997;28;20040;-78
2023/03/05 01:14:18;;;;;;;0.00;0.00;;;6.10;89.90;;;;;;5069980;28;20235;-78
2023/03/05 01:16:44;;;;;;;0.00;0.00;;;6.00;89.80;;;;;;5070006;28;20124;-72
2023/03/05 01:19:10;;;;;;;0.00;0.00;;;6.10;89.90;;;;;;5070473;28;20024;-72
2023/03/05 01:21:36;;;;;;;0.00;0.00;;;6.10;89.90;;;;;;5070348;28;20054;-72
2023/03/05 01:24:03;;;;;;;0.00;0.00;;;6.10;89.90;;;;;;5070259;28;20025;-72
2023/03/05 01:26:28;;;;;;;;;;;6.10;89.90;;;;;;5070349;28;20044;-72
2023/03/05 01:28:54;;;;;;;0.00;0.00;;;6.10;89.80;;;;;;5068873;28;19914;-72
2023/03/05 01:31:20;;;;;;;0.00;0.00;;;6.10;89.80;;;;;;5069934;28;20062;-72
2023/03/05 01:33:46;;;;;;;0.00;0.00;;;6.10;89.80;;;;;;5070197;28;20036;-72
2023/03/05 01:36:15;;;;;;;0.00;0.00;;;6.10;89.90;;;;;;5068765;28;20037;-72
2023/03/05 01:38:42;;;;;;;0.00;0.00;;;6.20;89.90;;;;;;5068903;28;20484;-72
2023/03/05 01:41:09;;;;;;;0.00;0.00;;;6.20;89.80;;;;;;5070082;28;20493;-72
2023/03/05 01:43:35;;;;;;;0.00;0.00;;;6.10;89.70;;;;;;5070189;28;20024;-72
2023/03/05 01:46:24;;;;;;;0.00;0.00;;;6.10;89.80;;;;;;5068590;28;20040;-72
2023/03/05 01:49:02;;;;;;;0.00;0.00;;;6.10;89.80;;;;;;5068474;28;20060;-72
2023/03/05 01:51:32;;;;;;;0.00;0.00;;;6.10;89.80;;;;;;5069687;28;20537;-72
2023/03/05 01:53:59;;;;;;;0.00;0.00;;;6.10;89.80;;;;;;5069559;28;20025;-72
2023/03/05 01:56:28;;;;;;;0.00;0.00;;;6.10;89.80;;;;;;5069898;28;20046;-72
2023/03/05 01:59:02;;;;;;;0.00;0.00;;;6.10;89.80;;;;;;5068507;28;20035;-72
2023/03/05 02:01:29;;;;;;;0.00;0.00;;;6.10;89.80;;;;;;5069766;28;20048;-72
2023/03/05 02:03:55;;;;;;;0.00;0.00;;;6.10;89.80;;;;;;5069649;28;20108;-72
2023/03/05 02:06:21;;;;;;;0.00;0.00;;;6.10;89.80;;;;;;5069528;28;20543;-72
2023/03/05 02:08:46;;;;;;;0.00;0.00;;;6.00;89.70;;;;;;5069912;28;20037;-72
2023/03/05 02:11:12;;;;;;;0.00;0.00;;;6.10;89.80;;;;;;5069590;28;20071;-72
2023/03/05 02:13:39;;;;;;;0.00;0.00;;;6.00;89.70;;;;;;5069662;28;20060;-72
2023/03/05 02:16:06;;;;;;;0.00;0.00;;;6.00;89.70;;;;;;5067480;28;20049;-72
2023/03/05 02:18:32;;;;;;;0.00;0.00;;;6.00;89.70;;;;;;5069399;28;20020;-72
2023/03/05 02:21:06;;;;;;;0.00;0.00;;;6.00;89.70;;;;;;5069454;28;20488;-72
2023/03/05 02:23:37;;;;;;;0.00;0.00;;;6.00;89.70;;;;;;5069261;28;20032;-72
2023/03/05 02:26:06;;;;;;;0.00;0.00;;;5.90;89.70;;;;;;5069262;28;20028;-72
2023/03/05 02:28:39;;;;;;;0.00;0.00;;;5.90;89.70;;;;;;5069255;28;20068;-72
2023/03/05 02:31:22;;;;;;;0.00;0.00;;;5.90;89.70;;;;;;5069328;28;20035;-72
2023/03/05 02:33:49;;;;;;;0.00;0.00;;;5.90;89.70;;;;;;5069017;28;20491;-72
2023/03/05 02:36:15;;;;;;;0.00;0.00;;;5.90;89.70;;;;;;5068917;28;20033;-72
2023/03/05 02:38:41;;;;;;;;;;;5.90;89.80;;;;;;5069416;28;20098;-72
2023/03/05 02:41:07;;;;;;;0.00;0.00;;;5.90;89.80;;;;;;5067876;28;19948;-72
2023/03/05 02:43:33;;;;;;;0.00;0.00;;;5.80;89.70;;;;;;5069328;28;20107;-72
2023/03/05 02:45:59;;;;;;;0.00;0.00;;;5.80;89.70;;;;;;5067547;28;20054;-72
2023/03/05 02:48:25;;;;;;;0.00;0.00;;;5.80;89.70;;;;;;5067785;28;20438;-72
2023/03/05 02:50:51;;;;;;;0.00;0.00;;;5.80;89.70;;;;;;5068582;28;20032;-72
2023/03/05 02:53:16;;;;;;;0.05;0.03;;;5.80;89.80;;;;;;5068747;28;20526;-72
2023/03/05 02:55:46;;;;;;;0.00;0.00;;;5.80;89.80;;;;;;5068486;28;20120;-72
2023/03/05 02:58:12;;;;;;;0.00;0.00;;;5.80;89.80;;;;;;5066643;28;20086;-72
2023/03/05 03:00:37;;;;;;;0.00;0.00;;;5.80;89.80;;;;;;5067369;28;20419;-72
2023/03/05 03:03:03;;;;;;;0.00;0.00;;;5.80;89.80;;;;;;5068676;28;20033;-72
2023/03/05 03:05:29;;;;;;;0.00;0.00;;;5.80;89.70;;;;;;5068362;28;20369;-72
2023/03/05 03:07:54;;;;;;;0.00;0.00;;;5.80;89.70;;;;;;5066910;28;20059;-72
2023/03/05 03:10:20;;;;;;;0.00;0.00;;;5.70;89.70;;;;;;5066909;28;20032;-72
2023/03/05 03:12:46;;;;;;;0.00;0.00;;;5.70;89.70;;;;;;5068241;28;20028;-72
2023/03/05 03:15:14;;;;;;;0.00;0.00;;;5.70;89.70;;;;;;5068118;28;20025;-72
2023/03/05 03:17:40;;;;;;;0.00;0.00;;;5.70;89.70;;;;;;5068162;28;20472;-72
2023/03/05 03:20:12;;;;;;;0.00;0.00;;;5.70;89.70;;;;;;5068201;28;20407;-72
2023/03/05 03:22:39;;;;;;;0.00;0.00;;;5.70;89.70;;;;;;5068206;28;20023;-72
2023/03/05 03:25:04;;;;;;;;;;;5.70;89.70;;;;;;5068944;28;20017;-72
2023/03/05 03:27:30;;;;;;;0.00;0.00;;;5.70;89.70;;;;;;5067988;28;20046;-72
2023/03/05 03:29:59;;;;;;;0.00;0.00;;;5.70;89.70;;;;;;5068208;28;20102;-72
2023/03/05 03:32:25;;;;;;;0.00;0.00;;;5.70;89.70;;;;;;5068068;28;20036;-72
2023/03/05 03:34:51;;;;;;;0.00;0.00;;;5.60;89.60;;;;;;5067858;28;20109;-72
2023/03/05 03:37:17;;;;;;;0.00;0.00;;;5.60;89.60;;;;;;5068050;28;20048;-72
2023/03/05 03:39:42;;;;;;;0.00;0.00;;;5.60;89.70;;;;;;5066434;28;20033;-72
2023/03/05 03:42:08;;;;;;;0.00;0.00;;;5.60;89.60;;;;;;5066591;28;20025;-72
2023/03/05 03:44:34;;;;;;;0.00;0.00;;;5.60;89.60;;;;;;5067850;28;20031;-72
2023/03/05 03:46:59;;;;;;;0.00;0.00;;;5.60;89.60;;;;;;5067805;28;20451;-72
2023/03/05 03:49:25;;;;;;;0.00;0.00;;;5.60;89.70;;;;;;5067756;28;20134;-72
2023/03/05 03:51:57;;;;;;;0.00;0.00;;;5.60;89.70;;;;;;5067877;28;20094;-72
2023/03/05 03:54:24;;;;;;;0.00;0.00;;;5.50;89.70;;;;;;5066419;28;20047;-72
2023/03/05 03:56:49;;;;;;;0.00;0.00;;;5.60;89.70;;;;;;5067747;28;20489;-72
2023/03/05 03:59:15;;;;;;;0.00;0.00;;;5.60;89.70;;;;;;5067856;28;20499;-72
2023/03/05 04:01:41;;;;;;;0.00;0.00;;;5.60;89.70;;;;;;5067718;28;20028;-72
2023/03/05 04:04:07;;;;;;;0.00;0.00;;;5.50;89.60;;;;;;5067588;28;20385;-72
2023/03/05 04:06:33;;;;;;;0.00;0.00;;;5.50;89.70;;;;;;5067553;28;20028;-72
2023/03/05 04:08:59;;;;;;;0.00;0.00;;;5.50;89.70;;;;;;5066217;28;20047;-72
2023/03/05 04:11:25;;;;;;;0.55;0.45;;;5.50;89.70;;;;;;5067552;28;20354;-72
2023/03/05 04:13:51;;;;;;;0.00;0.00;;;5.50;89.70;;;;;;5066090;28;20127;-71
2023/03/05 04:16:18;;;;;;;0.00;0.00;;;5.50;89.60;;;;;;5065986;28;20049;-71
2023/03/05 04:18:44;;;;;;;0.00;0.00;;;5.50;89.70;;;;;;5067392;28;20111;-71
2023/03/05 04:21:10;;;;;;;;;;;5.50;89.70;;;;;;5049857;28;20049;-71
2023/03/05 04:23:36;;;;;;;0.00;0.00;;;5.50;89.70;;;;;;5067265;28;20354;-71
2023/03/05 04:26:01;;;;;;;0.10;0.10;;;5.50;89.70;;;;;;5067478;28;20032;-71
2023/03/05 04:28:27;;;;;;;0.00;0.00;;;5.50;89.70;;;;;;5067486;28;20426;-71
2023/03/05 04:30:53;;;;;;;0.00;0.00;;;5.40;89.60;;;;;;5066091;28;20029;-71
2023/03/05 04:33:18;;;;;;;0.25;0.25;;;5.40;89.60;;;;;;5067297;28;20032;-71
2023/03/05 04:35:44;;;;;;;0.00;0.00;;;5.40;89.60;;;;;;5065869;28;20025;-71
2023/03/05 04:38:10;;;;;;;0.00;0.00;;;5.40;89.60;;;;;;5067308;28;20039;-71
2023/03/05 04:40:36;;;;;;;0.00;0.00;;;5.40;89.60;;;;;;5067358;28;20487;-71
2023/03/05 04:43:02;;;;;;;0.00;0.00;;;5.40;89.60;;;;;;5067438;28;20060;-71
2023/03/05 04:45:27;;;;;;;0.10;0.10;;;5.50;89.70;;;;;;5065883;28;20021;-71
2023/03/05 04:47:53;;;;;;;0.00;0.00;;;5.50;89.70;;;;;;5067204;28;20024;-71
2023/03/05 04:50:19;;;;;;;0.00;0.00;;;5.50;89.70;;;;;;5067116;28;20029;-71
2023/03/05 04:52:45;;;;;;;0.00;0.00;;;5.50;89.70;;;;;;5065689;28;20388;-71
2023/03/05 04:55:12;;;;;;;0.00;0.00;;;5.50;89.70;;;;;;5065748;28;20048;-71
2023/03/05 04:57:38;;;;;;;0.00;0.00;;;5.50;90.00;;;;;;5065770;28;20028;-71
2023/03/05 05:00:07;;;;;;;0.00;0.00;;;5.50;89.70;;;;;;5067088;28;20096;-71
2023/03/05 05:02:33;;;;;;;0.00;0.00;;;5.50;89.70;;;;;;5066993;28;20024;-71
2023/03/05 05:04:59;;;;;;;0.00;0.00;;;5.50;89.60;;;;;;5066872;28;20028;-71
2023/03/05 05:07:25;;;;;;;0.00;0.00;;;5.50;89.60;;;;;;5067029;28;20024;-71
2023/03/05 05:09:50;;;;;;;0.00;0.00;;;5.50;89.70;;;;;;5066967;28;20453;-71
2023/03/05 05:12:16;;;;;;;0.00;0.00;;;5.50;89.60;;;;;;5067007;28;20063;-71
2023/03/05 05:14:42;;;;;;;0.00;0.00;;;5.50;89.70;;;;;;5066954;28;20124;-71
2023/03/05 05:17:08;;;;;;;0.00;0.00;;;5.50;89.70;;;;;;5066559;28;20435;-71
2023/03/05 05:19:34;;;;;;;0.00;0.00;;;5.50;89.70;;;;;;5065969;28;20392;-71
2023/03/05 05:22:00;;;;;;;;;;;5.50;89.70;;;;;;5069708;28;20063;-71
2023/03/05 05:24:26;;;;;;;0.00;0.00;;;5.50;89.70;;;;;;5070698;28;19978;-71
2023/03/05 05:26:54;;;;;;;0.00;0.00;;;5.50;89.60;;;;;;5069330;28;20036;-71
2023/03/05 05:29:20;;;;;;;0.00;0.00;;;5.50;89.60;;;;;;5070468;28;20024;-71
2023/03/05 05:31:46;;;;;;;0.00;0.00;;;5.40;89.60;;;;;;5070846;28;20282;-71
2023/03/05 05:34:11;;;;;;;0.00;0.00;;;5.40;89.60;;;;;;5070415;28;20049;-71
2023/03/05 05:36:37;;;;;;;0.00;0.00;;;5.40;89.60;;;;;;5070205;28;20127;-71
2023/03/05 05:39:03;;;;;;;0.00;0.00;;;5.40;89.70;;;;;;5070733;28;20033;-71
2023/03/05 05:41:29;;;;;;;;;;;5.40;89.70;;;;;;5070721;28;20029;-71
2023/03/05 05:43:55;;;;;;;0.00;0.00;;;5.50;89.80;;;;;;5068945;28;20012;-71
2023/03/05 05:46:21;;;;;;;0.00;0.00;;;5.50;89.70;;;;;;5068860;28;20028;-71
2023/03/05 05:48:48;;;;;;;0.00;0.00;;;5.50;89.60;;;;;;5070038;28;20099;-71
2023/03/05 05:51:19;;;;;;;0.00;0.00;;;5.50;89.60;;;;;;5069978;28;20024;-71
2023/03/05 05:53:46;;;;;;;0.00;0.00;;;5.50;89.60;;;;;;5070100;28;20476;-72
2023/03/05 05:56:12;;;;;;;;;;;5.40;89.60;;;;;;5070240;28;20064;-71
2023/03/05 05:58:39;;;;;;;0.00;0.00;;;5.40;89.60;;;;;;5069913;28;20362;-72
2023/03/05 06:01:22;;;;;;;0.00;0.00;;;5.40;89.60;;;;;;5069907;28;20472;-71
2023/03/05 06:03:48;;;;;;;0.00;0.00;;;5.40;89.70;;;;;;5069868;28;20035;-71
2023/03/05 06:06:16;;;;;;;0.13;0.10;;;5.50;89.90;;;;;;5068344;28;20037;-71
2023/03/05 06:08:42;;;;;;;0.00;0.00;;;5.50;89.80;;;;;;5069741;28;20479;-72
2023/03/05 06:11:09;;;;;;;0.00;0.00;;;5.50;89.70;;;;;;5069672;28;20051;-72
2023/03/05 06:13:34;;;;;;;;;;;5.50;89.70;;;;;;5070026;28;20403;-72
2023/03/05 06:16:07;;;;;;;0.00;0.00;;;5.50;89.70;;;;;;5069031;28;19924;-72
2023/03/05 06:18:34;;;;;;;0.00;0.00;;;5.50;89.60;;;;;;5069513;28;20021;-72
2023/03/05 06:21:03;;;;;;;0.00;0.00;;;5.50;89.60;;;;;;5069539;28;20021;-71
2023/03/05 06:23:29;;;;;;;0.00;0.00;;;5.50;89.60;;;;;;5069464;28;20016;-71
2023/03/05 06:25:59;;;;;;;0.05;0.03;;;5.50;89.60;;;;;;5069381;28;20450;-71
2023/03/05 06:28:24;;;;;;;0.00;0.00;;;5.50;89.60;;;;;;5069382;28;20476;-72
2023/03/05 06:30:58;;;;;;;0.00;0.00;;;5.50;89.60;;;;;;5068894;28;20033;-72
2023/03/05 06:33:24;;;;;;;0.00;0.00;;;5.50;89.60;;;;;;5068668;28;20036;-71
2023/03/05 06:35:49;;;;;;;0.00;0.00;;;5.50;89.60;;;;;;5069041;28;20025;-72
2023/03/05 06:38:15;;;;;;;0.00;0.00;;;5.50;89.70;;;;;;5067968;28;20071;-72
2023/03/05 06:40:41;;;;;;;0.00;0.00;;;5.50;89.70;;;;;;5069213;28;20435;-71
2023/03/05 06:43:06;;;;;;;0.00;0.00;;;5.50;89.70;;;;;;5069091;28;20024;-71
2023/03/05 06:45:32;;;;;;;0.00;0.00;;;5.50;89.70;;;;;;5068879;28;20085;-72
2023/03/05 06:47:58;;;;;;;0.00;0.00;;;5.50;89.70;;;;;;5069025;28;20111;-72
2023/03/05 06:50:23;;;;;;;0.00;0.00;;;5.40;89.60;;;;;;5067704;28;20063;-71
2023/03/05 06:52:50;;;;;;;0.00;0.00;;;5.40;89.60;;;;;;5068751;28;20035;-72
2023/03/05 06:55:17;;;;;;;0.00;0.00;;;5.30;89.50;;;;;;5067211;28;20559;-71
2023/03/05 06:57:42;;;;;;;0.00;0.00;;;5.30;89.50;;;;;;5067352;28;20166;-71
2023/03/05 07:00:09;;;;;;;0.00;0.00;;;5.20;89.50;;;;;;5067338;28;20100;-71
2023/03/05 07:02:39;;;;;;;0.00;0.00;;;5.20;89.70;;;;;;5068754;28;20064;-72
2023/03/05 07:05:06;;;;;;;0.00;0.00;;;5.10;89.60;;;;;;5068640;28;20098;-71
2023/03/05 07:07:32;;;;;;;0.00;0.00;;;5.10;89.70;;;;;;5068585;28;20043;-71
2023/03/05 07:09:59;;;;;;;0.00;0.00;;;5.10;89.70;;;;;;5068504;28;20036;-72
2023/03/05 07:12:24;;;;;;;0.00;0.00;;;5.20;89.80;;;;;;5067157;28;20492;-72
2023/03/05 07:14:50;;;;;;;0.10;0.10;;;5.20;89.80;;;;;;5068265;28;20038;-72
2023/03/05 07:17:16;;;;;;;0.00;0.00;;;5.20;89.80;;;;;;5067997;28;20110;-72
2023/03/05 07:19:42;;;;;;;0.00;0.00;;;5.20;89.70;;;;;;5068261;28;20025;-71
2023/03/05 07:22:08;;;;;;;0.10;0.10;;;5.20;89.70;;;;;;5066991;28;20074;-71
2023/03/05 07:24:34;;;;;;;0.10;0.10;;;5.20;89.70;;;;;;5067065;28;20029;-71
2023/03/05 07:27:00;;;;;;;0.00;0.00;;;5.20;89.70;;;;;;5068049;28;20035;-72
2023/03/05 07:29:27;;;;;;;0.00;0.00;;;5.20;89.70;;;;;;5050213;28;20564;-72
2023/03/05 07:31:53;;;;;;;0.00;0.00;;;5.20;89.70;;;;;;5068175;28;20024;-72
2023/03/05 07:34:20;;;;;;;0.10;0.10;;;5.20;89.80;;;;;;5068057;28;20598;-72
2023/03/05 07:36:50;;;;;;;0.40;0.30;;;5.20;89.80;;;;;;5066726;28;20116;-71
2023/03/05 07:39:17;;;;;;;0.00;0.00;;;5.30;89.90;;;;;;5067979;28;20059;-72
2023/03/05 07:41:44;;;;;;;0.10;0.10;;;5.30;89.80;;;;;;5067923;28;20354;-72
2023/03/05 07:44:10;;;;;;;0.10;0.10;;;5.40;89.90;;;;;;5067565;28;20024;-71
2023/03/05 07:46:36;;;;;;;0.10;0.10;;;5.40;89.80;;;;;;5066499;28;20036;-72
2023/03/05 07:49:02;;;;;;;0.13;0.13;;;5.40;89.80;;;;;;5067751;28;20037;-71
2023/03/05 07:51:28;;;;;;;0.10;0.10;;;5.50;89.90;;;;;;5067589;28;20370;-72
2023/03/05 07:53:56;;;;;;;0.10;0.10;;;5.50;89.80;;;;;;5066384;28;20484;-71
2023/03/05 07:56:30;;;;;;;0.10;0.10;;;5.60;89.90;;;;;;5067500;28;20119;-72
2023/03/05 07:58:58;;;;;;;0.10;0.10;;;5.60;89.80;;;;;;5067691;28;20024;-72
2023/03/05 08:01:24;;;;;;;0.10;0.10;;;5.60;89.80;;;;;;5067473;28;20036;-72
2023/03/05 08:03:50;;;;;;;0.30;0.30;;;5.70;89.90;;;;;;5067429;28;20052;-72
2023/03/05 08:06:15;;;;;;;0.20;0.20;;;5.80;89.90;;;;;;5067533;28;20067;-71
2023/03/05 08:08:41;;;;;;;0.10;0.10;;;5.80;89.80;;;;;;5067358;28;20035;-71
2023/03/05 08:11:10;;;;;;;0.10;0.10;;;5.80;89.80;;;;;;5067499;28;20036;-72
2023/03/05 08:13:37;;;;;;;0.10;0.10;;;5.80;89.80;;;;;;5067465;28;20415;-72
2023/03/05 08:16:14;;;;;;;0.13;0.13;;;5.90;89.80;;;;;;5067217;28;20436;-71
2023/03/05 08:18:39;;;;;;;0.17;0.17;;;5.90;89.80;;;;;;5067499;28;20028;-71
2023/03/05 08:21:14;;;;;;;0.10;0.10;;;5.90;89.90;;;;;;5067378;28;20021;-72
2023/03/05 08:23:39;;;;;;;0.10;0.10;;;5.90;89.90;;;;;;5067592;28;20056;-71
2023/03/05 08:26:15;;;;;;;0.10;0.10;;;6.00;89.90;;;;;;5067246;28;20110;-72
2023/03/05 08:28:41;;;;;;;0.10;0.10;;;6.00;90.00;;;;;;5067385;28;20181;-71
2023/03/05 08:31:11;;;;;;;0.10;0.10;;;6.10;90.00;;;;;;5067086;28;20039;-71
2023/03/05 08:33:38;;;;;;;0.10;0.10;;;6.20;90.00;;;;;;5067194;28;20050;-71
2023/03/05 08:36:04;;;;;;;0.10;0.10;;;6.20;90.00;;;;;;5067402;28;20399;-72
2023/03/05 08:38:30;;;;;;;0.10;0.10;;;6.30;90.00;;;;;;5065912;28;20028;-72
2023/03/05 08:40:55;;;;;;;0.10;0.10;;;6.30;90.00;;;;;;5067029;28;20033;-72
2023/03/05 08:43:21;;;;;;;0.20;0.20;;;6.40;90.00;;;;;;5067016;28;20108;-72
2023/03/05 08:45:48;;;;;;;0.10;0.10;;;6.50;90.00;;;;;;5066721;28;20094;-72
2023/03/05 08:48:14;;;;;;;0.10;0.10;;;6.50;90.00;;;;;;5066965;28;20020;-72
2023/03/05 08:50:40;;;;;;;0.10;0.10;;;6.70;90.10;;;;;;5067033;28;20110;-72
2023/03/05 08:53:06;;;;;;;0.10;0.10;;;6.80;90.10;;;;;;5067110;28;20491;-72
2023/03/05 08:55:31;;;;;;;0.10;0.10;;;6.80;90.00;;;;;;5068588;28;20033;-72
2023/03/05 08:57:57;;;;;;;0.10;0.10;;;6.80;90.00;;;;;;5069447;28;20115;-72
2023/03/05 09:00:23;;;;;;;0.10;0.10;;;6.90;90.10;;;;;;5070443;28;20028;-72
2023/03/05 09:02:50;;;;;;;0.10;0.10;;;7.10;90.10;;;;;;5070762;28;20054;-72
2023/03/05 09:05:16;;;;;;;0.00;0.00;;;7.30;90.20;;;;;;5070657;28;20035;-72
2023/03/05 09:07:41;;;;;;;0.10;0.10;;;7.50;90.30;;;;;;5070465;28;20028;-72
2023/03/05 09:10:10;;;;;;;0.00;0.00;;;7.70;90.30;;;;;;5070746;28;20036;-72
2023/03/05 09:12:36;;;;;;;0.00;0.00;;;7.90;90.10;;;;;;5070316;28;20021;-72
2023/03/05 09:15:04;;;;;;;0.00;0.00;;;7.90;90.00;;;;;;5069191;28;20404;-72
2023/03/05 09:17:29;;;;;;;0.00;0.00;;;7.90;90.00;;;;;;5070041;28;20180;-72
2023/03/05 09:19:55;;;;;;;0.00;0.00;;;7.90;90.00;;;;;;5069291;28;20063;-72
2023/03/05 09:22:21;;;;;;;0.00;0.00;;;7.90;90.00;;;;;;5070323;28;20071;-72
2023/03/05 09:24:46;;;;;;;0.00;0.00;;;7.90;90.00;;;;;;5070028;28;20129;-72
2023/03/05 09:27:12;;;;;;;0.00;0.00;;;8.00;90.10;;;;;;5069989;28;20473;-72
2023/03/05 09:29:38;;;;;;;0.00;0.00;;;8.00;90.10;;;;;;5070037;28;20645;-72
2023/03/05 09:32:04;;;;;;;0.00;0.00;;;8.10;90.20;;;;;;5035548;28;20028;-72
2023/03/05 09:34:29;;;;;;;0.00;0.00;;;8.30;90.40;;;;;;5069453;28;20060;-72
2023/03/05 09:36:55;;;;;;;0.00;0.00;;;8.80;90.90;;;;;;5069768;28;20113;-72
2023/03/05 09:39:21;;;;;;;0.00;0.00;;;9.90;92.10;;;;;;5070066;28;20024;-72
2023/03/05 09:42:17;;;;;;;0.00;0.00;;;11.50;92.20;;;;;;5070021;28;20396;-72
2023/03/05 09:45:22;;;;;;;0.00;0.00;;;12.60;91.50;;;;;;5069553;28;20029;-72
2023/03/05 09:47:53;;;;;;;0.00;0.00;;;13.30;91.20;;;;;;5038841;28;20050;-72
2023/03/05 09:50:22;;;;;;;0.00;0.00;;;14.40;91.50;;;;;;5069636;28;20050;-72
2023/03/05 09:52:55;;;;;;;0.00;0.00;;;15.10;91.30;;;;;;5069253;28;20400;-72
2023/03/05 09:55:42;;;;;;;0.38;0.20;;;16.00;91.50;;;;;;5069638;28;20082;-72
2023/03/05 09:58:18;;;;;;;1.35;0.35;;;16.80;91.40;;;;;;5069091;28;20113;-72
2023/03/05 10:00:48;;;;;;;0.00;0.00;;;17.30;91.20;;;;;;5068954;28;20107;-72
2023/03/05 10:03:48;;;;;;;0.03;0.03;;;17.90;91.30;;;;;;5069363;28;20079;-72
2023/03/05 10:06:56;;;;;;;0.10;0.00;;;18.60;91.40;;;;;;5069023;28;20032;-72
2023/03/05 10:09:53;;;;;;;0.00;0.00;;;19.20;91.30;;;;;;5013309;28;20042;-72
2023/03/05 10:12:41;;;;;;;0.05;0.05;;;19.30;90.90;;;;;;5068782;28;20043;-72
2023/03/05 10:15:18;;;;;;;0.30;0.10;;;19.30;90.90;;;;;;5068401;28;20051;-72
2023/03/05 10:18:06;;;;;;;0.00;0.00;;;19.30;91.10;;;;;;5068837;28;20036;-72
2023/03/05 10:20:38;;;;;;;;;;;19.60;91.40;;;;;;5069457;28;20031;-72
2023/03/05 10:23:12;;;;;;;0.00;0.00;;;19.90;91.30;;;;;;5067261;28;19904;-72
2023/03/05 10:25:57;;;;;;;0.00;0.00;;;19.80;90.90;;;;;;5068465;28;20031;-72
2023/03/05 10:28:42;;;;;;;0.03;0.00;;;19.20;90.60;;;;;;5068551;28;20309;-72
2023/03/05 10:31:35;;;;;;;0.00;0.00;;;18.60;90.40;;;;;;5068588;28;20307;-71
2023/03/05 10:34:39;;;;;;;0.00;0.00;;;18.00;90.50;;;;;;5068736;28;20032;-72
2023/03/05 10:37:28;;;;;;;0.00;0.00;;;17.10;90.40;;;;;;5068914;28;20021;-73
2023/03/05 10:40:08;;;;;;;0.00;0.00;;;16.40;90.40;;;;;;5067155;28;20031;-71
2023/03/05 10:42:49;;;;;;;0.00;0.00;;;15.70;90.50;;;;;;5068290;28;20025;-71
2023/03/05 10:45:27;;;;;;;0.00;0.00;;;15.20;90.60;;;;;;5068150;28;20024;-71
2023/03/05 10:48:02;;;;;;;0.10;0.00;;;14.70;90.60;;;;;;5067732;28;20099;-70
2023/03/05 10:50:36;;;;;;;0.00;0.00;;;14.20;90.40;;;;;;5067911;28;20418;-73
2023/03/05 10:53:29;;;;;;;0.10;0.10;;;13.70;90.50;;;;;;5068502;28;20250;-73
2023/03/05 10:55:55;;;;;;;0.00;0.00;;;13.30;90.50;;;;;;5067709;28;20150;-73
2023/03/05 10:58:23;;;;;;;0.00;0.00;;;13.10;90.70;;;;;;5067601;28;20035;-73
2023/03/05 11:00:58;;;;;;;0.00;0.00;;;13.10;91.00;;;;;;5067175;28;20035;-73
2023/03/05 11:03:24;;;;;;;0.00;0.00;;;13.40;91.30;;;;;;5067772;28;20055;-70
2023/03/05 11:06:01;;;;;;;0.00;0.00;;;13.60;91.00;;;;;;5067479;28;20024;-70
2023/03/05 11:08:35;;;;;;;0.00;0.00;;;13.70;90.80;;;;;;5067710;28;20103;-70
2023/03/05 11:11:14;;;;;;;0.00;0.00;;;13.60;90.70;;;;;;5066006;28;20111;-70
2023/03/05 11:14:02;;;;;;;0.00;0.00;;;13.40;90.50;;;;;;5067554;28;20488;-70
2023/03/05 11:16:34;;;;;;;0.00;0.00;;;13.10;90.40;;;;;;5067169;28;20485;-70
2023/03/05 11:19:19;;;;;;;0.00;0.00;;;12.90;90.70;;;;;;5067346;28;20074;-71
2023/03/05 11:22:03;;;;;;;0.00;0.00;;;12.80;90.60;;;;;;5067400;28;20017;-70
2023/03/05 11:24:28;;;;;;;0.00;0.00;;;12.80;90.70;;;;;;5067332;28;20024;-70
2023/03/05 11:26:56;;;;;;;0.00;0.00;;;12.80;90.60;;;;;;5067031;28;20033;-71
2023/03/05 11:29:24;;;;;;;0.00;0.00;;;12.60;90.40;;;;;;5067274;28;20032;-72
2023/03/05 11:31:50;;;;;;;0.00;0.00;;;12.40;90.20;;;;;;5067225;28;20028;-72
2023/03/05 11:34:16;;;;;;;0.00;0.00;;;12.00;90.20;;;;;;5067154;28;20097;-72
2023/03/05 11:37:05;;;;;;;0.00;0.00;;;11.70;90.40;;;;;;5066843;28;20443;-72
2023/03/05 11:39:34;;;;;;;0.00;0.00;;;11.40;90.40;;;;;;5066789;28;20490;-70
2023/03/05 11:42:13;;;;;;;0.00;0.00;;;11.30;90.40;;;;;;5067088;28;20043;-72
2023/03/05 11:44:54;;;;;;;0.00;0.00;;;11.10;90.40;;;;;;5066800;28;20032;-73
2023/03/05 11:47:27;;;;;;;0.00;0.00;;;11.00;90.40;;;;;;5065616;28;20086;-72
2023/03/05 11:50:09;;;;;;;0.00;0.00;;;11.00;90.60;;;;;;5066873;28;20440;-72
2023/03/05 11:52:45;;;;;;;0.00;0.00;;;11.00;90.70;;;;;;5066836;28;20062;-72
2023/03/05 11:55:18;;;;;;;0.00;0.00;;;11.10;90.70;;;;;;5066659;28;20032;-72
2023/03/05 11:58:03;;;;;;;0.00;0.00;;;11.30;90.70;;;;;;5067365;28;20374;-72
2023/03/05 12:00:31;;;;;;;0.20;0.15;;;11.50;90.70;;;;;;5066365;28;20081;-73
2023/03/05 12:03:01;;;;;;;0.00;0.00;;;11.60;90.70;;;;;;5066016;28;20021;-71
2023/03/05 12:05:28;;;;;;;0.00;0.00;;;11.80;90.70;;;;;;5065108;28;20336;-71
2023/03/05 12:08:00;;;;;;;0.00;0.00;;;11.90;90.60;;;;;;5066431;28;20033;-71
2023/03/05 12:10:26;;;;;;;0.00;0.00;;;12.00;90.40;;;;;;5066595;28;20029;-72
2023/03/05 12:13:19;;;;;;;0.00;0.00;;;12.00;90.40;;;;;;5066501;28;20111;-72
2023/03/05 12:16:03;;;;;;;0.00;0.00;;;11.80;90.40;;;;;;5066119;28;20400;-73
2023/03/05 12:18:42;;;;;;;0.00;0.00;;;11.70;90.30;;;;;;5066374;28;20020;-72
2023/03/05 12:21:32;;;;;;;0.00;0.00;;;11.50;90.30;;;;;;5066323;28;20135;-71
2023/03/05 12:24:00;;;;;;;0.00;0.00;;;11.40;90.40;;;;;;5066456;28;20052;-71
2023/03/05 12:27:03;;;;;;;0.00;0.00;;;11.40;90.60;;;;;;5066444;28;20036;-71
2023/03/05 12:29:31;;;;;;;0.00;0.00;;;11.60;90.80;;;;;;5066811;28;20234;-71
2023/03/05 12:31:58;;;;;;;0.00;0.00;;;11.80;90.90;;;;;;5068997;28;20016;-73
2023/03/05 12:34:47;;;;;;;0.00;0.00;;;12.10;90.80;;;;;;5070792;28;20032;-74
2023/03/05 12:37:22;;;;;;;0.00;0.00;;;12.40;90.90;;;;;;5070151;28;20028;-72
2023/03/05 12:40:02;;;;;;;0.00;0.00;;;12.70;91.00;;;;;;5069997;28;20028;-71
2023/03/05 12:42:28;;;;;;;0.00;0.00;;;13.00;91.00;;;;;;5068768;28;20025;-71
2023/03/05 12:45:13;;;;;;;0.00;0.00;;;13.10;90.90;;;;;;5070153;28;20501;-71
2023/03/05 12:47:40;;;;;;;0.00;0.00;;;13.20;91.00;;;;;;5070034;28;20043;-71
2023/03/05 12:50:25;;;;;;;0.00;0.00;;;13.20;90.60;;;;;;5069285;28;20471;-71
2023/03/05 12:52:59;;;;;;;0.00;0.00;;;13.10;90.70;;;;;;5069634;28;20089;-71
2023/03/05 12:55:44;;;;;;;0.00;0.00;;;13.40;91.50;;;;;;5069940;28;20119;-72
2023/03/05 12:58:40;;;;;;;0.00;0.00;;;13.80;91.30;;;;;;5069705;28;20024;-72
2023/03/05 13:01:38;;;;;;;0.00;0.00;;;13.90;90.90;;;;;;5069624;28;20473;-71
2023/03/05 13:04:09;;;;;;;0.00;0.00;;;13.60;90.50;;;;;;5069507;28;20495;-71
2023/03/05 13:06:37;;;;;;;0.00;0.00;;;13.30;90.40;;;;;;5069379;28;20036;-71
2023/03/05 13:09:17;;;;;;;0.00;0.00;;;13.00;90.40;;;;;;5069271;28;20078;-73
2023/03/05 13:11:50;;;;;;;0.00;0.00;;;12.60;90.40;;;;;;5068189;28;20526;-72